createdAt,value
2024-03-12T00:01:09.861Z,87.34
2024-03-12T00:03:39.330Z,87.37
2024-03-12T00:06:06.858Z,87.59
2024-03-12T00:08:33.681Z,87.25
2024-03-12T00:11:00.985Z,87.67
2024-03-12T00:13:27.965Z,86.82
2024-03-12T00:15:55.848Z,86.84
2024-03-12T00:18:27.072Z,86.89
2024-03-12T00:20:54.586Z,86.66
2024-03-12T00:23:21.935Z,87.07
2024-03-12T00:25:48.502Z,86.34
2024-03-12T00:28:15.118Z,86.40
2024-03-12T00:30:45.981Z,86.30
2024-03-12T00:33:13.031Z,86.03
2024-03-12T00:35:44.221Z,86.57
2024-03-12T00:38:11.742Z,86.93
2024-03-12T00:40:40.092Z,86.60
2024-03-12T00:43:08.666Z,87.60
2024-03-12T00:45:39.838Z,86.77
2024-03-12T00:48:11.165Z,87.81
2024-03-12T00:50:39.137Z,87.69
2024-03-12T00:53:06.483Z,88.44
2024-03-12T00:55:33.152Z,88.72
2024-03-12T00:58:00.296Z,89.22
2024-03-12T01:00:30.100Z,89.38
2024-03-12T01:02:59.730Z,89.36
2024-03-12T01:05:28.199Z,89.91
2024-03-12T01:07:56.094Z,89.20
2024-03-12T01:10:22.874Z,90.17
2024-03-12T01:12:52.876Z,90.12
2024-03-12T01:15:20.919Z,89.68
2024-03-12T01:17:51.401Z,89.74
2024-03-12T01:20:21.787Z,89.67
2024-03-12T01:22:48.825Z,90.17
2024-03-12T01:25:16.327Z,89.93
2024-03-12T01:27:43.546Z,89.08
2024-03-12T01:30:18.016Z,89.42
2024-03-12T01:32:49.241Z,88.97
2024-03-12T01:35:16.047Z,89.03
2024-03-12T01:37:46.855Z,89.81
2024-03-12T01:40:22.734Z,88.28
2024-03-12T01:42:53.681Z,88.45
2024-03-12T01:45:23.643Z,88.66
2024-03-12T01:47:51.503Z,87.83
2024-03-12T01:50:19.583Z,87.33
2024-03-12T01:52:47.681Z,86.80
2024-03-12T01:55:19.818Z,86.34
2024-03-12T01:57:47.442Z,85.45
2024-03-12T02:00:15.965Z,84.98
2024-03-12T02:02:43.930Z,86.48
2024-03-12T02:05:11.673Z,85.12
2024-03-12T02:07:50.200Z,86.14
2024-03-12T02:10:20.169Z,85.10
2024-03-12T02:12:47.902Z,85.15
2024-03-12T02:15:19.361Z,85.32
2024-03-12T02:17:46.678Z,85.23
2024-03-12T02:20:14.143Z,85.02
2024-03-12T02:22:41.280Z,84.84
2024-03-12T02:25:12.242Z,85.27
2024-03-12T02:27:41.403Z,84.54
2024-03-12T02:30:09.782Z,84.92
2024-03-12T02:32:37.395Z,84.81
2024-03-12T02:35:04.356Z,85.20
2024-03-12T02:37:30.836Z,84.47
2024-03-12T02:39:57.429Z,85.08
2024-03-12T02:42:24.030Z,84.47
2024-03-12T02:44:50.582Z,85.46
2024-03-12T02:47:21.055Z,85.19
2024-03-12T02:49:49.575Z,85.27
2024-03-12T02:52:16.125Z,85.22
2024-03-12T02:54:45.438Z,85.29
2024-03-12T02:57:12.534Z,85.53
2024-03-12T02:59:39.442Z,85.42
2024-03-12T03:02:06.356Z,85.14
2024-03-12T03:04:37.958Z,85.81
2024-03-12T03:07:05.716Z,85.71
2024-03-12T03:09:32.623Z,85.58
2024-03-12T03:12:00.929Z,85.30
2024-03-12T03:14:27.474Z,84.85
2024-03-12T03:16:55.428Z,85.06
2024-03-12T03:19:24.013Z,85.55
2024-03-12T03:21:50.645Z,85.42
2024-03-12T03:24:17.276Z,85.08
2024-03-12T03:26:43.926Z,84.82
2024-03-12T03:29:10.499Z,85.08
2024-03-12T03:31:36.982Z,84.87
2024-03-12T03:34:05.951Z,85.10
2024-03-12T03:36:33.434Z,85.16
2024-03-12T03:39:00.084Z,85.69
2024-03-12T03:41:26.747Z,85.70
2024-03-12T03:43:53.412Z,85.83
2024-03-12T03:46:20.631Z,85.51
2024-03-12T03:48:47.403Z,84.69
2024-03-12T03:51:15.644Z,84.89
2024-03-12T03:53:42.212Z,85.46
2024-03-12T03:56:16.768Z,84.49
2024-03-12T03:58:44.672Z,84.80
2024-03-12T04:01:11.886Z,85.06
2024-03-12T04:03:40.191Z,85.23
2024-03-12T04:06:08.310Z,85.20
2024-03-12T04:08:39.454Z,84.98
2024-03-12T04:11:06.227Z,85.28
2024-03-12T04:13:36.217Z,85.74
2024-03-12T04:16:02.824Z,85.60
2024-03-12T04:18:30.178Z,85.06
2024-03-12T04:20:57.213Z,85.34
2024-03-12T04:23:23.894Z,86.35
2024-03-12T04:25:50.393Z,86.32
2024-03-12T04:28:19.122Z,86.40
2024-03-12T04:30:45.701Z,86.96
2024-03-12T04:33:12.506Z,86.32
2024-03-12T04:35:39.286Z,86.33
2024-03-12T04:38:06.027Z,85.84
2024-03-12T04:40:32.673Z,85.52
2024-03-12T04:42:59.472Z,85.40
2024-03-12T04:45:26.326Z,85.32
2024-03-12T04:47:53.335Z,85.07
2024-03-12T04:50:24.167Z,85.07
2024-03-12T04:52:51.333Z,85.23
2024-03-12T04:55:18.189Z,84.81
2024-03-12T04:57:45.049Z,85.00
2024-03-12T05:00:16.275Z,85.03
2024-03-12T05:02:43.690Z,85.07
2024-03-12T05:05:10.600Z,85.05
2024-03-12T05:07:37.238Z,84.96
2024-03-12T05:10:05.788Z,85.59
2024-03-12T05:12:32.564Z,85.20
2024-03-12T05:14:59.276Z,85.67
2024-03-12T05:17:25.746Z,86.25
2024-03-12T05:19:52.238Z,85.83
2024-03-12T05:22:18.769Z,85.95
2024-03-12T05:24:45.374Z,86.23
2024-03-12T05:27:16.782Z,86.37
2024-03-12T05:29:53.519Z,86.22
2024-03-12T05:32:20.277Z,85.36
2024-03-12T05:34:48.818Z,85.84
2024-03-12T05:37:42.208Z,86.37
2024-03-12T05:40:14.707Z,86.51
2024-03-12T05:42:59.658Z,86.93
2024-03-12T05:45:44.903Z,86.97
2024-03-12T05:48:11.677Z,86.85
2024-03-12T05:50:42.617Z,87.61
2024-03-12T05:53:09.694Z,88.06
2024-03-12T05:55:36.412Z,87.63
2024-03-12T05:58:05.861Z,88.05
2024-03-12T06:00:33.627Z,88.93
2024-03-12T06:03:00.707Z,88.77
2024-03-12T06:05:27.617Z,88.10
2024-03-12T06:07:54.984Z,89.16
2024-03-12T06:10:23.098Z,88.23
2024-03-12T06:12:50.685Z,87.45
2024-03-12T06:15:17.799Z,87.45
2024-03-12T06:17:44.627Z,87.55
2024-03-12T06:20:14.125Z,87.82
2024-03-12T06:22:41.142Z,87.76
2024-03-12T06:25:10.542Z,87.58
2024-03-12T06:27:39.339Z,86.71
2024-03-12T06:30:07.268Z,86.52
2024-03-12T06:32:34.346Z,86.39
2024-03-12T06:35:01.871Z,85.72
2024-03-12T06:37:31.184Z,85.83
2024-03-12T06:39:59.057Z,86.00
2024-03-12T06:42:31.024Z,85.80
2024-03-12T06:44:58.178Z,85.25
2024-03-12T06:47:27.993Z,85.69
2024-03-12T06:49:55.628Z,85.21
2024-03-12T06:52:27.781Z,84.75
2024-03-12T06:54:54.571Z,84.75
2024-03-12T06:57:23.491Z,84.07
2024-03-12T06:59:50.347Z,84.22
2024-03-12T07:02:19.725Z,84.07
2024-03-12T07:04:48.563Z,83.31
2024-03-12T07:07:21.990Z,82.75
2024-03-12T07:09:50.441Z,81.92
2024-03-12T07:12:17.940Z,81.77
2024-03-12T07:14:46.915Z,81.39
2024-03-12T07:17:15.697Z,81.81
2024-03-12T07:19:43.881Z,81.47
2024-03-12T07:22:12.232Z,81.28
2024-03-12T07:24:42.150Z,80.78
2024-03-12T07:27:10.450Z,80.02
2024-03-12T07:29:37.534Z,81.11
2024-03-12T07:32:06.095Z,80.94
2024-03-12T07:34:33.422Z,80.12
2024-03-12T07:37:00.986Z,80.62
2024-03-12T07:39:38.266Z,79.62
2024-03-12T07:42:14.462Z,79.73
2024-03-12T07:44:43.181Z,80.03
2024-03-12T07:47:11.620Z,79.51
2024-03-12T07:49:38.597Z,79.54
2024-03-12T07:52:07.290Z,78.97
2024-03-12T07:54:34.610Z,78.82
2024-03-12T07:57:01.622Z,78.31
2024-03-12T07:59:31.449Z,78.42
2024-03-12T08:01:59.058Z,78.30
2024-03-12T08:04:26.574Z,78.19
2024-03-12T08:06:54.191Z,78.67
2024-03-12T08:09:20.915Z,78.15
2024-03-12T08:11:49.686Z,78.26
2024-03-12T08:14:17.924Z,77.25
2024-03-12T08:16:44.602Z,77.73
2024-03-12T08:19:12.935Z,78.24
2024-03-12T08:21:40.127Z,77.81
2024-03-12T08:24:06.956Z,77.06
2024-03-12T08:26:33.505Z,76.92
2024-03-12T08:29:00.060Z,77.17
2024-03-12T08:31:33.326Z,77.70
2024-03-12T08:34:06.291Z,77.61
2024-03-12T08:36:34.543Z,77.27
2024-03-12T08:39:01.989Z,77.50
2024-03-12T08:41:28.588Z,76.82
2024-03-12T08:43:55.374Z,76.79
2024-03-12T08:46:21.916Z,77.07
2024-03-12T08:48:48.728Z,76.70
2024-03-12T08:51:15.266Z,77.14
2024-03-12T08:53:41.874Z,77.68
2024-03-12T08:56:08.404Z,77.07
2024-03-12T08:58:34.995Z,77.38
2024-03-12T09:01:01.723Z,77.33
2024-03-12T09:03:30.420Z,77.40
2024-03-12T09:05:57.208Z,76.65
2024-03-12T09:08:25.420Z,76.32
2024-03-12T09:10:52.316Z,76.44
2024-03-12T09:13:20.676Z,76.13
2024-03-12T09:15:49.725Z,75.51
2024-03-12T09:18:24.451Z,76.03
2024-03-12T09:20:53.564Z,76.11
2024-03-12T09:23:20.312Z,76.46
2024-03-12T09:25:47.099Z,76.79
2024-03-12T09:28:17.902Z,76.89
2024-03-12T09:30:44.792Z,76.11
2024-03-12T09:33:12.117Z,76.89
2024-03-12T09:35:39.260Z,75.94
2024-03-12T09:38:10.610Z,75.21
2024-03-12T09:40:37.954Z,76.06
2024-03-12T09:43:05.339Z,76.32
2024-03-12T09:45:32.689Z,75.85
2024-03-12T09:48:00.033Z,74.93
2024-03-12T09:50:30.725Z,75.12
2024-03-12T09:52:58.468Z,75.29
2024-03-12T09:55:26.464Z,74.78
2024-03-12T09:57:54.184Z,74.38
2024-03-12T10:00:23.958Z,74.72
2024-03-12T10:02:51.192Z,74.13
2024-03-12T10:05:23.254Z,73.95
2024-03-12T10:08:10.060Z,73.61
2024-03-12T10:10:39.038Z,72.33
2024-03-12T10:13:06.686Z,74.00
2024-03-12T10:15:33.316Z,72.56
2024-03-12T10:18:01.297Z,73.34
2024-03-12T10:20:28.463Z,72.69
2024-03-12T10:23:11.237Z,72.21
2024-03-12T10:25:40.744Z,70.82
2024-03-12T10:28:08.456Z,72.26
2024-03-12T10:30:43.453Z,71.91
2024-03-12T10:33:18.525Z,71.97
2024-03-12T10:35:46.682Z,70.58
2024-03-12T10:38:14.690Z,72.38
2024-03-12T10:40:42.645Z,71.94
2024-03-12T10:43:09.788Z,72.54
2024-03-12T10:45:37.021Z,72.27
2024-03-12T10:48:07.411Z,72.30
2024-03-12T10:50:35.549Z,73.19
2024-03-12T10:53:02.390Z,72.22
2024-03-12T10:55:34.271Z,72.36
2024-03-12T10:58:03.789Z,71.68
2024-03-12T11:00:31.671Z,71.64
2024-03-12T11:02:58.847Z,71.71
2024-03-12T11:05:28.155Z,71.51
2024-03-12T11:07:57.284Z,71.64
2024-03-12T11:10:26.628Z,71.87
2024-03-12T11:12:55.506Z,71.73
2024-03-12T11:15:24.352Z,70.44
2024-03-12T11:17:52.809Z,71.23
2024-03-12T11:20:27.490Z,70.86
2024-03-12T11:22:57.613Z,71.35
2024-03-12T11:25:51.404Z,71.12
2024-03-12T11:28:20.693Z,69.66
2024-03-12T11:31:02.030Z,70.63
2024-03-12T11:33:50.691Z,69.72
2024-03-12T11:36:32.884Z,69.82
2024-03-12T11:39:05.408Z,69.44
2024-03-12T11:42:07.136Z,68.47
2024-03-12T11:44:45.982Z,68.61
2024-03-12T11:47:36.322Z,68.33
2024-03-12T11:50:05.273Z,69.00
2024-03-12T11:52:33.568Z,69.16
2024-03-12T11:55:00.756Z,69.24
2024-03-12T11:57:31.052Z,69.43
2024-03-12T11:59:59.200Z,68.52
2024-03-12T12:02:27.644Z,68.46
2024-03-12T12:04:59.058Z,67.64
2024-03-12T12:07:27.114Z,67.25
2024-03-12T12:09:54.124Z,67.68
2024-03-12T12:12:21.393Z,68.21
2024-03-12T12:14:53.760Z,67.46
2024-03-12T12:17:25.294Z,67.36
2024-03-12T12:20:05.862Z,67.36
2024-03-12T12:22:36.377Z,66.38
2024-03-12T12:25:04.043Z,67.67
2024-03-12T12:27:33.327Z,67.63
2024-03-12T12:30:01.571Z,68.41
2024-03-12T12:32:30.099Z,68.56
2024-03-12T12:34:58.062Z,68.40
2024-03-12T12:37:24.882Z,68.17
2024-03-12T12:39:54.070Z,68.20
2024-03-12T12:42:25.363Z,67.53
2024-03-12T12:44:55.447Z,68.48
2024-03-12T12:47:27.264Z,68.42
2024-03-12T12:49:54.243Z,67.29
2024-03-12T12:52:21.145Z,68.29
2024-03-12T12:54:50.105Z,67.61
2024-03-12T12:57:16.878Z,67.93
2024-03-12T12:59:43.508Z,68.35
2024-03-12T13:02:19.776Z,69.15
2024-03-12T13:04:46.427Z,69.51
2024-03-12T13:07:29.118Z,69.57
2024-03-12T13:10:10.483Z,69.18
2024-03-12T13:12:37.890Z,69.90
2024-03-12T13:15:05.262Z,69.00
2024-03-12T13:17:32.194Z,68.84
2024-03-12T13:19:58.858Z,68.87
2024-03-12T13:24:52.460Z,68.99
2024-03-12T13:27:19.069Z,69.39
2024-03-12T13:29:46.636Z,69.24
2024-03-12T13:32:13.810Z,68.62
2024-03-12T13:34:40.484Z,68.37
2024-03-12T13:37:08.651Z,67.63
2024-03-12T13:39:35.361Z,68.59
2024-03-12T13:42:02.007Z,68.62
2024-03-12T13:44:28.674Z,68.82
2024-03-12T13:46:55.511Z,68.44
2024-03-12T13:49:26.793Z,68.85
2024-03-12T13:51:53.714Z,69.03
2024-03-12T13:54:21.106Z,69.36
2024-03-12T13:56:47.796Z,69.32
2024-03-12T13:59:16.173Z,69.63
2024-03-12T14:01:43.827Z,69.82
2024-03-12T14:04:12.914Z,69.87
2024-03-12T14:06:39.733Z,69.60
2024-03-12T14:09:12.834Z,69.62
2024-03-12T14:11:40.086Z,69.60
2024-03-12T14:14:07.675Z,69.56
2024-03-12T14:16:34.204Z,69.22
2024-03-12T14:19:00.805Z,69.53
2024-03-12T14:21:31.506Z,69.01
2024-03-12T14:24:00.293Z,68.84
2024-03-12T14:26:26.878Z,68.60
2024-03-12T14:28:53.457Z,67.45
2024-03-12T14:31:20.074Z,68.20
2024-03-12T14:33:49.015Z,68.14
2024-03-12T14:36:16.318Z,68.90
2024-03-12T14:38:42.941Z,68.61
2024-03-12T14:41:09.572Z,68.62
2024-03-12T14:43:36.178Z,68.82
2024-03-12T14:46:03.975Z,68.23
2024-03-12T14:48:30.609Z,68.20
2024-03-12T14:50:57.609Z,68.86
2024-03-12T14:53:24.420Z,67.38
2024-03-12T14:55:50.978Z,67.81
2024-03-12T14:58:19.083Z,67.57
2024-03-12T15:00:45.735Z,67.24
2024-03-12T15:03:13.752Z,67.94
2024-03-12T15:05:41.360Z,68.35
2024-03-12T15:08:11.701Z,68.32
2024-03-12T15:10:38.553Z,68.60
2024-03-12T15:13:08.162Z,69.01
2024-03-12T15:15:36.480Z,69.18
2024-03-12T15:18:03.400Z,68.86
2024-03-12T15:20:31.191Z,69.40
2024-03-12T15:23:00.002Z,69.62
2024-03-12T15:25:29.150Z,69.79
2024-03-12T15:27:56.012Z,69.76
2024-03-12T15:30:23.006Z,69.60
2024-03-12T15:32:50.077Z,69.73
2024-03-12T15:35:16.757Z,69.57
2024-03-12T15:37:43.538Z,69.77
2024-03-12T15:40:12.049Z,69.64
2024-03-12T15:42:41.164Z,69.36
2024-03-12T15:45:12.605Z,69.50
2024-03-12T15:47:40.921Z,69.89
2024-03-12T15:50:08.978Z,69.79
2024-03-12T15:52:35.766Z,69.84
2024-03-12T15:55:05.601Z,69.47
2024-03-12T15:57:32.212Z,69.88
2024-03-12T15:59:58.805Z,69.77
2024-03-12T16:02:26.097Z,69.39
2024-03-12T16:04:53.490Z,69.76
2024-03-12T16:07:20.211Z,69.56
2024-03-12T16:09:47.141Z,69.31
2024-03-12T16:12:14.877Z,69.45
2024-03-12T16:14:42.713Z,69.63
2024-03-12T16:17:11.083Z,69.72
2024-03-12T16:19:37.973Z,69.73
2024-03-12T16:22:04.855Z,69.71
2024-03-12T16:24:32.784Z,69.53
2024-03-12T16:27:00.146Z,70.40
2024-03-12T16:29:27.941Z,70.31
2024-03-12T16:31:54.849Z,70.09
2024-03-12T16:34:22.186Z,70.44
2024-03-12T16:36:49.037Z,70.11
2024-03-12T16:39:15.853Z,70.14
2024-03-12T16:41:43.810Z,70.22
2024-03-12T16:44:10.823Z,69.88
2024-03-12T16:46:37.767Z,70.07
2024-03-12T16:49:05.104Z,70.57
2024-03-12T16:51:35.216Z,70.35
2024-03-12T16:54:03.772Z,70.75
2024-03-12T16:56:33.582Z,71.25
2024-03-12T16:59:03.650Z,71.51
2024-03-12T17:01:32.001Z,72.12
2024-03-12T17:03:59.119Z,73.26
2024-03-12T17:06:27.254Z,74.45
2024-03-12T17:08:54.659Z,77.36
2024-03-12T17:11:22.252Z,78.59
2024-03-12T17:13:49.203Z,78.95
2024-03-12T17:16:18.643Z,79.30
2024-03-12T17:18:45.937Z,79.78
2024-03-12T17:21:12.928Z,79.93
2024-03-12T17:23:39.919Z,80.19
2024-03-12T17:26:06.702Z,80.82
2024-03-12T17:28:34.381Z,81.07
2024-03-12T17:31:01.453Z,81.75
2024-03-12T17:33:28.308Z,81.87
2024-03-12T17:35:56.129Z,82.04
2024-03-12T17:38:25.905Z,82.03
2024-03-12T17:40:59.255Z,82.35
2024-03-12T17:43:30.457Z,82.30
2024-03-12T17:45:57.598Z,82.59
2024-03-12T17:48:29.168Z,82.41
2024-03-12T17:50:56.017Z,82.26
2024-03-12T17:53:23.224Z,82.50
2024-03-12T17:55:50.644Z,82.36
2024-03-12T17:58:17.989Z,82.62
2024-03-12T18:00:45.501Z,82.50
2024-03-12T18:03:12.721Z,82.50
2024-03-12T18:05:39.481Z,82.47
2024-03-12T18:08:14.147Z,82.48
2024-03-12T18:10:43.333Z,82.56
2024-03-12T18:13:11.923Z,82.50
2024-03-12T18:15:38.637Z,82.86
2024-03-12T18:18:06.268Z,83.07
2024-03-12T18:20:34.801Z,83.49
2024-03-12T18:23:01.481Z,83.39
2024-03-12T18:25:28.327Z,83.24
2024-03-12T18:27:57.384Z,83.12
2024-03-12T18:30:24.164Z,83.11
2024-03-12T18:32:51.106Z,83.29
2024-03-12T18:35:19.891Z,83.52
2024-03-12T18:37:46.671Z,83.29
2024-03-12T18:40:14.868Z,83.60
2024-03-12T18:42:43.629Z,83.39
2024-03-12T18:45:14.249Z,83.30
2024-03-12T18:47:41.638Z,83.61
2024-03-12T18:50:10.993Z,83.61
2024-03-12T18:52:39.022Z,83.69
2024-03-12T18:55:12.402Z,83.67
2024-03-12T18:57:44.766Z,83.74
2024-03-12T19:00:20.023Z,83.66
2024-03-12T19:02:48.323Z,83.40
2024-03-12T19:05:19.486Z,83.09
2024-03-12T19:07:47.457Z,83.35
2024-03-12T19:10:15.521Z,83.00
2024-03-12T19:12:42.998Z,82.91
2024-03-12T19:15:12.097Z,82.90
2024-03-12T19:17:41.484Z,82.94
2024-03-12T19:20:16.125Z,82.78
2024-03-12T19:22:44.784Z,82.58
2024-03-12T19:25:14.037Z,82.42
2024-03-12T19:27:43.474Z,82.32
2024-03-12T19:30:14.365Z,82.43
2024-03-12T19:32:46.949Z,82.54
2024-03-12T19:35:14.510Z,82.30
2024-03-12T19:37:43.048Z,82.54
2024-03-12T19:40:13.274Z,82.38
2024-03-12T19:42:45.030Z,82.61
2024-03-12T19:45:13.459Z,82.27
2024-03-12T19:47:46.535Z,82.43
2024-03-12T19:50:26.944Z,82.78
2024-03-12T19:52:56.274Z,82.93
2024-03-12T19:55:27.501Z,82.93
2024-03-12T19:57:57.808Z,82.90
2024-03-12T20:00:34.843Z,82.74
2024-03-12T20:03:05.990Z,82.98
2024-03-12T20:05:33.913Z,82.96
2024-03-12T20:08:03.292Z,83.10
2024-03-12T20:10:30.429Z,83.08
2024-03-12T20:12:58.945Z,82.85
2024-03-12T20:15:25.924Z,82.87
2024-03-12T20:17:52.490Z,83.09
2024-03-12T20:20:19.158Z,82.79
2024-03-12T20:22:52.818Z,82.86
2024-03-12T20:25:20.806Z,82.79
2024-03-12T20:27:55.027Z,82.80
2024-03-12T20:30:27.474Z,83.08
2024-03-12T20:32:59.981Z,82.79
2024-03-12T20:35:29.036Z,82.61
2024-03-12T20:37:56.552Z,82.77
2024-03-12T20:40:26.086Z,82.98
2024-03-12T20:42:53.420Z,82.63
2024-03-12T20:45:23.478Z,82.77
2024-03-12T20:47:50.293Z,82.71
2024-03-12T20:50:19.731Z,82.24
2024-03-12T20:52:47.444Z,82.70
2024-03-12T20:55:17.490Z,82.63
2024-03-12T20:57:48.295Z,82.55
2024-03-12T21:00:25.196Z,82.77
2024-03-12T21:02:53.106Z,82.52
2024-03-12T21:05:20.112Z,82.54
2024-03-12T21:07:46.681Z,82.78
2024-03-12T21:10:13.372Z,82.66
2024-03-12T21:12:40.659Z,83.00
2024-03-12T21:15:08.221Z,82.91
2024-03-12T21:17:35.804Z,83.10
2024-03-12T21:20:13.095Z,83.29
2024-03-12T21:22:40.306Z,83.01
2024-03-12T21:25:08.187Z,83.35
2024-03-12T21:27:34.997Z,83.49
2024-03-12T21:30:02.508Z,83.62
2024-03-12T21:32:29.225Z,83.32
2024-03-12T21:34:55.864Z,83.23
2024-03-12T21:37:23.203Z,83.50
2024-03-12T21:39:50.004Z,83.39
2024-03-12T21:42:17.659Z,82.90
2024-03-12T21:44:45.475Z,82.83
2024-03-12T21:47:12.235Z,83.13
2024-03-12T21:49:38.902Z,82.71
2024-03-12T21:52:06.038Z,82.69
2024-03-12T21:54:32.607Z,82.65
2024-03-12T21:57:00.390Z,82.36
2024-03-12T21:59:26.959Z,82.66
2024-03-12T22:01:54.429Z,82.61
2024-03-12T22:04:23.849Z,82.45
2024-03-12T22:06:51.188Z,82.29
2024-03-12T22:09:17.943Z,82.48
2024-03-12T22:11:44.590Z,82.27
2024-03-12T22:14:11.195Z,82.22
2024-03-12T22:16:39.364Z,82.30
2024-03-12T22:19:09.727Z,82.48
2024-03-12T22:21:37.320Z,82.50
2024-03-12T22:24:05.474Z,82.48
2024-03-12T22:26:32.341Z,82.38
2024-03-12T22:28:58.989Z,82.52
2024-03-12T22:31:25.521Z,82.82
2024-03-12T22:33:52.142Z,82.78
2024-03-12T22:36:18.704Z,82.94
2024-03-12T22:38:45.573Z,82.71
2024-03-12T22:41:12.322Z,82.82
2024-03-12T22:43:39.657Z,82.83
2024-03-12T22:46:07.634Z,82.95
2024-03-12T22:48:34.939Z,83.11
2024-03-12T22:51:03.008Z,83.08
2024-03-12T22:53:32.683Z,83.10
2024-03-12T22:56:00.073Z,83.20
2024-03-12T22:58:28.267Z,83.17
2024-03-12T23:00:55.935Z,83.29
2024-03-12T23:03:23.657Z,83.34
2024-03-12T23:05:50.523Z,83.42
2024-03-12T23:08:20.450Z,83.29
2024-03-12T23:10:48.137Z,83.38
2024-03-12T23:13:17.340Z,83.43
2024-03-12T23:15:44.590Z,83.09
2024-03-12T23:18:12.931Z,83.19
2024-03-12T23:20:41.449Z,83.10
2024-03-12T23:23:08.651Z,83.20
2024-03-12T23:25:35.763Z,83.30
2024-03-12T23:28:02.299Z,83.16
2024-03-12T23:30:28.923Z,83.30
2024-03-12T23:32:59.125Z,83.12
2024-03-12T23:35:28.178Z,83.00
2024-03-12T23:38:01.259Z,82.98
2024-03-12T23:40:29.204Z,82.99
2024-03-12T23:42:56.264Z,82.68
2024-03-12T23:45:23.918Z,82.76
2024-03-12T23:47:52.849Z,82.55
2024-03-12T23:50:20.027Z,82.83
2024-03-12T23:52:50.058Z,82.77
2024-03-12T23:55:16.839Z,82.71
2024-03-12T23:57:44.107Z,82.62
